Mercedes — PCMC — position and weather

sailwx.info

Track history (hours):
 
Tides and Currents Weather Stations Pressure Air Temp Water Temp Dewpoint Dewpoint Depression Visibility Wind Speed Wind Dir Waves Ship Positions

Mercedes (Netherlands)

Brig, built 2005.

Last reported at 2017-Feb-22 16:23 UTC. Time now 2017-Feb-22 17:27 UTC.
Position N 18°01' W 063°04'.

Length 47 m; draft 3.4 m.

Type: Sailing vessel. MMSI: 244595000.

Date/timePositionNaut miles runAvg speedWind from/ knotsBaromVisibWave heightAir tempDewpointWater temp
2017-Feb-22 16:23N 18°01' W 063°04'4 5.1
2017-Feb-22 15:33N 18°02' W 063°08'4 3.0
2017-Feb-22 14:15N 18°01' W 063°04'0 0.0
2017-Feb-21 20:04N 18°00' W 063°04'2 3.0
2017-Feb-21 19:23N 18°01' W 063°06'1 0.9
2017-Feb-21 18:15N 18°02' W 063°06'4 2.1
2017-Feb-21 16:27N 17°60' W 063°03'3 0.1
2017-Feb-19 15:19N 18°01' W 063°06'2 1.8
2017-Feb-19 14:27N 18°02' W 063°07'4 4.2
2017-Feb-19 13:33N 17°59' W 063°05'3 0.2
2017-Feb-19 00:11N 18°01' W 063°03'2 0.4
2017-Feb-18 20:27N 18°01' W 063°05'4 4.3
2017-Feb-18 19:33N 18°03' W 063°09'2 2.2
2017-Feb-18 18:33N 18°02' W 063°07'1 0.2
2017-Feb-18 15:28N 18°02' W 063°07'1 1.2
2017-Feb-18 14:33N 18°01' W 063°06'2 0.1
2017-Feb-17 15:31N 18°01' W 063°05'3 3.0
2017-Feb-17 14:34N 18°02' W 063°08'4 3.4
2017-Feb-17 13:21N 18°00' W 063°04'1 0.0
2017-Feb-16 23:25N 18°01' W 063°04'6 6.2
2017-Feb-16 22:31N 18°03' W 063°09'3 2.8
2017-Feb-16 21:33N 18°01' W 063°06'2 0.8
2017-Feb-16 19:22N 18°01' W 063°05'4 4.5
2017-Feb-16 18:33N 18°03' W 063°08'4 3.7
2017-Feb-16 17:33N 17°59' W 063°06'3 1.2
2017-Feb-16 15:23N 18°01' W 063°04'4 4.9
2017-Feb-16 14:31N 18°02' W 063°08'4 3.8
2017-Feb-16 13:32N 17°59' W 063°05'2 0.0
2017-Feb-14 15:32N 18°01' W 063°04'3 2.5
2017-Feb-14 14:14N 18°02' W 063°07'3 3.6
2017-Feb-14 13:31N 18°00' W 063°05'1 0.0
2017-Feb-13 14:29N 18°00' W 063°04'  
Track history (hours):
 
Tides and Currents Weather Stations Pressure Air Temp Water Temp Dewpoint Dewpoint Depression Visibility Wind Speed Wind Dir Waves Ship Positions

Mercedes (Netherlands)

Brig, built 2005.

Last reported at 2017-Feb-22 16:23 UTC. Time now 2017-Feb-22 17:27 UTC.
Position N 18°01' W 063°04'.

Length 47 m; draft 3.4 m.

Type: Sailing vessel. MMSI: 244595000.

Date/timePositionNaut miles runAvg speedWind from/ knotsBaromVisibWave heightAir tempDewpointWater temp
2017-Feb-22 16:23N 18°01' W 063°04'4 5.1
2017-Feb-22 15:33N 18°02' W 063°08'4 3.0
2017-Feb-22 14:15N 18°01' W 063°04'0 0.0
2017-Feb-21 20:04N 18°00' W 063°04'2 3.0
2017-Feb-21 19:23N 18°01' W 063°06'1 0.9
2017-Feb-21 18:15N 18°02' W 063°06'4 2.1
2017-Feb-21 16:27N 17°60' W 063°03'3 0.1
2017-Feb-19 15:19N 18°01' W 063°06'2 1.8
2017-Feb-19 14:27N 18°02' W 063°07'4 4.2
2017-Feb-19 13:33N 17°59' W 063°05'3 0.2
2017-Feb-19 00:11N 18°01' W 063°03'2 0.4
2017-Feb-18 20:27N 18°01' W 063°05'4 4.3
2017-Feb-18 19:33N 18°03' W 063°09'2 2.2
2017-Feb-18 18:33N 18°02' W 063°07'1 0.2
2017-Feb-18 15:28N 18°02' W 063°07'1 1.2
2017-Feb-18 14:33N 18°01' W 063°06'2 0.1
2017-Feb-17 15:31N 18°01' W 063°05'3 3.0
2017-Feb-17 14:34N 18°02' W 063°08'4 3.4
2017-Feb-17 13:21N 18°00' W 063°04'1 0.0
2017-Feb-16 23:25N 18°01' W 063°04'6 6.2
2017-Feb-16 22:31N 18°03' W 063°09'3 2.8
2017-Feb-16 21:33N 18°01' W 063°06'2 0.8
2017-Feb-16 19:22N 18°01' W 063°05'4 4.5
2017-Feb-16 18:33N 18°03' W 063°08'4 3.7
2017-Feb-16 17:33N 17°59' W 063°06'3 1.2
2017-Feb-16 15:23N 18°01' W 063°04'4 4.9
2017-Feb-16 14:31N 18°02' W 063°08'4 3.8
2017-Feb-16 13:32N 17°59' W 063°05'2 0.0
2017-Feb-14 15:32N 18°01' W 063°04'3 2.5
2017-Feb-14 14:14N 18°02' W 063°07'3 3.6
2017-Feb-14 13:31N 18°00' W 063°05'1 0.0
2017-Feb-13 14:29N 18°00' W 063°04'  

Dump ship's entire track history